sensor_id;sensor_type;location;lat;lon;timestamp;P1;durP1;ratioP1;P2;durP2;ratioP2
66741;SDS011;53654;54.152;19.432;2023-09-30T00:00:40;17.50;;;15.80;;
66741;SDS011;53654;54.152;19.432;2023-09-30T00:03:28;16.80;;;15.10;;
66741;SDS011;53654;54.152;19.432;2023-09-30T00:05:56;17.80;;;16.20;;
66741;SDS011;53654;54.152;19.432;2023-09-30T00:08:24;18.80;;;17.10;;
66741;SDS011;53654;54.152;19.432;2023-09-30T00:10:52;15.90;;;17.20;;
66741;SDS011;53654;54.152;19.432;2023-09-30T00:13:22;20.00;;;17.90;;
66741;SDS011;53654;54.152;19.432;2023-09-30T00:15:50;19.50;;;17.70;;
66741;SDS011;53654;54.152;19.432;2023-09-30T00:18:19;18.90;;;17.10;;
66741;SDS011;53654;54.152;19.432;2023-09-30T00:20:47;19.00;;;17.30;;
66741;SDS011;53654;54.152;19.432;2023-09-30T00:23:15;19.80;;;14.60;;
66741;SDS011;53654;54.152;19.432;2023-09-30T00:25:44;19.10;;;17.30;;
66741;SDS011;53654;54.152;19.432;2023-09-30T00:28:12;19.70;;;17.90;;
66741;SDS011;53654;54.152;19.432;2023-09-30T00:30:42;20.20;;;18.20;;
66741;SDS011;53654;54.152;19.432;2023-09-30T00:33:14;21.00;;;19.00;;
66741;SDS011;53654;54.152;19.432;2023-09-30T00:35:42;20.40;;;18.30;;
66741;SDS011;53654;54.152;19.432;2023-09-30T00:38:10;19.80;;;18.00;;
66741;SDS011;53654;54.152;19.432;2023-09-30T00:40:38;19.40;;;17.50;;
66741;SDS011;53654;54.152;19.432;2023-09-30T00:43:06;19.50;;;17.80;;
66741;SDS011;53654;54.152;19.432;2023-09-30T00:45:34;20.20;;;18.30;;
66741;SDS011;53654;54.152;19.432;2023-09-30T00:48:07;19.70;;;17.90;;
66741;SDS011;53654;54.152;19.432;2023-09-30T00:50:35;19.90;;;18.00;;
66741;SDS011;53654;54.152;19.432;2023-09-30T00:53:03;19.50;;;17.70;;
66741;SDS011;53654;54.152;19.432;2023-09-30T00:55:33;20.60;;;18.80;;
66741;SDS011;53654;54.152;19.432;2023-09-30T00:58:01;20.20;;;18.20;;
66741;SDS011;53654;54.152;19.432;2023-09-30T01:00:29;20.40;;;18.50;;
66741;SDS011;53654;54.152;19.432;2023-09-30T01:02:58;19.70;;;18.00;;
66741;SDS011;53654;54.152;19.432;2023-09-30T01:05:32;20.50;;;18.60;;
66741;SDS011;53654;54.152;19.432;2023-09-30T01:08:02;21.00;;;19.10;;
66741;SDS011;53654;54.152;19.432;2023-09-30T01:10:30;20.40;;;18.70;;
66741;SDS011;53654;54.152;19.432;2023-09-30T01:12:58;21.10;;;19.00;;
66741;SDS011;53654;54.152;19.432;2023-09-30T01:15:28;21.10;;;19.10;;
66741;SDS011;53654;54.152;19.432;2023-09-30T01:17:58;20.70;;;18.80;;
66741;SDS011;53654;54.152;19.432;2023-09-30T01:20:27;21.30;;;19.40;;
66741;SDS011;53654;54.152;19.432;2023-09-30T01:22:56;20.80;;;18.80;;
66741;SDS011;53654;54.152;19.432;2023-09-30T01:25:25;20.60;;;18.70;;
66741;SDS011;53654;54.152;19.432;2023-09-30T01:27:53;21.40;;;19.40;;
66741;SDS011;53654;54.152;19.432;2023-09-30T01:30:22;21.10;;;19.20;;
66741;SDS011;53654;54.152;19.432;2023-09-30T01:32:51;20.00;;;18.20;;
66741;SDS011;53654;54.152;19.432;2023-09-30T01:35:19;20.10;;;18.20;;
66741;SDS011;53654;54.152;19.432;2023-09-30T01:37:47;20.30;;;18.40;;
66741;SDS011;53654;54.152;19.432;2023-09-30T01:40:15;19.90;;;18.20;;
66741;SDS011;53654;54.152;19.432;2023-09-30T01:42:45;19.80;;;18.00;;
66741;SDS011;53654;54.152;19.432;2023-09-30T01:45:13;20.40;;;18.50;;
66741;SDS011;53654;54.152;19.432;2023-09-30T01:47:42;20.10;;;18.40;;
66741;SDS011;53654;54.152;19.432;2023-09-30T01:50:10;20.40;;;18.50;;
66741;SDS011;53654;54.152;19.432;2023-09-30T01:52:38;20.40;;;18.70;;
66741;SDS011;53654;54.152;19.432;2023-09-30T01:55:06;20.10;;;18.10;;
66741;SDS011;53654;54.152;19.432;2023-09-30T01:57:35;20.50;;;18.60;;
66741;SDS011;53654;54.152;19.432;2023-09-30T02:00:04;20.10;;;18.40;;
66741;SDS011;53654;54.152;19.432;2023-09-30T02:02:39;20.10;;;18.30;;
66741;SDS011;53654;54.152;19.432;2023-09-30T02:05:07;19.90;;;18.40;;
66741;SDS011;53654;54.152;19.432;2023-09-30T02:07:36;19.80;;;18.00;;
66741;SDS011;53654;54.152;19.432;2023-09-30T02:10:04;19.90;;;18.20;;
66741;SDS011;53654;54.152;19.432;2023-09-30T02:12:33;20.30;;;18.40;;
66741;SDS011;53654;54.152;19.432;2023-09-30T02:15:02;20.60;;;18.70;;
66741;SDS011;53654;54.152;19.432;2023-09-30T02:17:31;21.00;;;19.20;;
66741;SDS011;53654;54.152;19.432;2023-09-30T02:19:59;20.60;;;18.90;;
66741;SDS011;53654;54.152;19.432;2023-09-30T02:22:29;21.00;;;19.10;;
66741;SDS011;53654;54.152;19.432;2023-09-30T02:24:57;21.80;;;19.90;;
66741;SDS011;53654;54.152;19.432;2023-09-30T02:27:26;19.90;;;18.20;;
66741;SDS011;53654;54.152;19.432;2023-09-30T02:29:55;20.70;;;18.70;;
66741;SDS011;53654;54.152;19.432;2023-09-30T02:32:24;20.10;;;18.10;;
66741;SDS011;53654;54.152;19.432;2023-09-30T02:34:53;20.60;;;18.80;;
66741;SDS011;53654;54.152;19.432;2023-09-30T02:37:21;18.30;;;16.60;;
66741;SDS011;53654;54.152;19.432;2023-09-30T02:39:49;18.70;;;17.10;;
66741;SDS011;53654;54.152;19.432;2023-09-30T02:42:17;18.80;;;17.20;;
66741;SDS011;53654;54.152;19.432;2023-09-30T02:44:45;19.20;;;17.40;;
66741;SDS011;53654;54.152;19.432;2023-09-30T02:47:14;19.20;;;17.50;;
66741;SDS011;53654;54.152;19.432;2023-09-30T02:49:43;20.10;;;18.40;;
66741;SDS011;53654;54.152;19.432;2023-09-30T02:52:11;18.10;;;16.70;;
66741;SDS011;53654;54.152;19.432;2023-09-30T02:54:40;19.60;;;18.00;;
66741;SDS011;53654;54.152;19.432;2023-09-30T02:57:08;19.70;;;18.00;;
66741;SDS011;53654;54.152;19.432;2023-09-30T02:59:38;20.30;;;18.60;;
66741;SDS011;53654;54.152;19.432;2023-09-30T03:02:06;20.70;;;18.90;;
66741;SDS011;53654;54.152;19.432;2023-09-30T03:04:34;21.10;;;19.40;;
66741;SDS011;53654;54.152;19.432;2023-09-30T03:07:03;21.00;;;19.20;;
66741;SDS011;53654;54.152;19.432;2023-09-30T03:09:32;19.90;;;18.10;;
66741;SDS011;53654;54.152;19.432;2023-09-30T03:12:00;20.60;;;18.90;;
66741;SDS011;53654;54.152;19.432;2023-09-30T03:14:28;21.90;;;20.00;;
66741;SDS011;53654;54.152;19.432;2023-09-30T03:16:58;22.40;;;20.50;;
66741;SDS011;53654;54.152;19.432;2023-09-30T03:19:27;22.80;;;20.80;;
66741;SDS011;53654;54.152;19.432;2023-09-30T03:21:55;23.60;;;21.70;;
66741;SDS011;53654;54.152;19.432;2023-09-30T03:24:24;24.50;;;22.50;;
66741;SDS011;53654;54.152;19.432;2023-09-30T03:26:52;24.80;;;22.70;;
66741;SDS011;53654;54.152;19.432;2023-09-30T03:29:20;26.50;;;24.20;;
66741;SDS011;53654;54.152;19.432;2023-09-30T03:31:48;27.40;;;25.00;;
66741;SDS011;53654;54.152;19.432;2023-09-30T03:34:16;25.10;;;23.10;;
66741;SDS011;53654;54.152;19.432;2023-09-30T03:36:44;25.50;;;23.40;;
66741;SDS011;53654;54.152;19.432;2023-09-30T03:39:13;26.80;;;24.60;;
66741;SDS011;53654;54.152;19.432;2023-09-30T03:41:43;26.20;;;24.00;;
66741;SDS011;53654;54.152;19.432;2023-09-30T03:44:12;27.40;;;25.10;;
66741;SDS011;53654;54.152;19.432;2023-09-30T03:46:40;26.50;;;24.30;;
66741;SDS011;53654;54.152;19.432;2023-09-30T03:49:08;27.40;;;25.10;;
66741;SDS011;53654;54.152;19.432;2023-09-30T03:51:36;28.10;;;25.60;;
66741;SDS011;53654;54.152;19.432;2023-09-30T03:54:05;27.30;;;25.10;;
66741;SDS011;53654;54.152;19.432;2023-09-30T03:56:33;28.40;;;26.00;;
66741;SDS011;53654;54.152;19.432;2023-09-30T03:59:02;28.60;;;26.20;;
66741;SDS011;53654;54.152;19.432;2023-09-30T04:01:30;28.70;;;26.20;;
66741;SDS011;53654;54.152;19.432;2023-09-30T04:03:59;28.80;;;26.40;;
66741;SDS011;53654;54.152;19.432;2023-09-30T04:06:28;29.80;;;27.20;;
66741;SDS011;53654;54.152;19.432;2023-09-30T04:08:56;30.20;;;27.60;;
66741;SDS011;53654;54.152;19.432;2023-09-30T04:11:26;30.40;;;27.90;;
66741;SDS011;53654;54.152;19.432;2023-09-30T04:13:55;30.60;;;27.90;;
66741;SDS011;53654;54.152;19.432;2023-09-30T04:16:23;31.90;;;29.20;;
66741;SDS011;53654;54.152;19.432;2023-09-30T04:18:56;31.30;;;28.60;;
66741;SDS011;53654;54.152;19.432;2023-09-30T04:21:24;31.90;;;29.20;;
66741;SDS011;53654;54.152;19.432;2023-09-30T04:23:54;32.80;;;29.90;;
66741;SDS011;53654;54.152;19.432;2023-09-30T04:26:23;31.70;;;29.20;;
66741;SDS011;53654;54.152;19.432;2023-09-30T04:28:52;33.30;;;30.50;;
66741;SDS011;53654;54.152;19.432;2023-09-30T04:31:21;32.50;;;29.80;;
66741;SDS011;53654;54.152;19.432;2023-09-30T04:33:52;32.60;;;30.00;;
66741;SDS011;53654;54.152;19.432;2023-09-30T04:36:20;33.90;;;31.00;;
66741;SDS011;53654;54.152;19.432;2023-09-30T04:38:50;34.50;;;31.60;;
66741;SDS011;53654;54.152;19.432;2023-09-30T04:41:18;34.30;;;31.50;;
66741;SDS011;53654;54.152;19.432;2023-09-30T04:43:47;34.10;;;31.30;;
66741;SDS011;53654;54.152;19.432;2023-09-30T04:46:15;34.40;;;31.50;;
66741;SDS011;53654;54.152;19.432;2023-09-30T04:48:48;34.50;;;31.70;;
66741;SDS011;53654;54.152;19.432;2023-09-30T04:51:20;36.60;;;33.40;;
66741;SDS011;53654;54.152;19.432;2023-09-30T04:53:48;35.40;;;32.40;;
66741;SDS011;53654;54.152;19.432;2023-09-30T04:56:16;35.20;;;32.20;;
66741;SDS011;53654;54.152;19.432;2023-09-30T04:58:44;36.40;;;33.30;;
66741;SDS011;53654;54.152;19.432;2023-09-30T05:01:14;36.80;;;33.70;;
66741;SDS011;53654;54.152;19.432;2023-09-30T05:03:42;36.80;;;33.60;;
66741;SDS011;53654;54.152;19.432;2023-09-30T05:06:11;37.20;;;33.80;;
66741;SDS011;53654;54.152;19.432;2023-09-30T05:08:40;28.50;;;26.10;;
66741;SDS011;53654;54.152;19.432;2023-09-30T05:11:08;12.10;;;11.00;;
66741;SDS011;53654;54.152;19.432;2023-09-30T05:13:36;7.90;;;5.80;;
66741;SDS011;53654;54.152;19.432;2023-09-30T05:16:04;7.10;;;5.50;;
66741;SDS011;53654;54.152;19.432;2023-09-30T05:18:33;5.60;;;4.50;;
66741;SDS011;53654;54.152;19.432;2023-09-30T05:21:02;7.30;;;4.30;;
66741;SDS011;53654;54.152;19.432;2023-09-30T05:23:30;6.80;;;4.00;;
66741;SDS011;53654;54.152;19.432;2023-09-30T05:26:00;5.90;;;4.00;;
66741;SDS011;53654;54.152;19.432;2023-09-30T05:28:28;6.80;;;4.00;;
66741;SDS011;53654;54.152;19.432;2023-09-30T05:30:56;6.10;;;3.70;;
66741;SDS011;53654;54.152;19.432;2023-09-30T05:33:24;6.80;;;3.90;;
66741;SDS011;53654;54.152;19.432;2023-09-30T05:35:53;8.80;;;3.90;;
66741;SDS011;53654;54.152;19.432;2023-09-30T05:38:22;8.20;;;4.10;;
66741;SDS011;53654;54.152;19.432;2023-09-30T05:40:50;7.30;;;3.80;;
66741;SDS011;53654;54.152;19.432;2023-09-30T05:43:19;8.50;;;3.90;;
66741;SDS011;53654;54.152;19.432;2023-09-30T05:45:47;9.50;;;3.90;;
66741;SDS011;53654;54.152;19.432;2023-09-30T05:48:25;7.70;;;3.90;;
66741;SDS011;53654;54.152;19.432;2023-09-30T05:50:54;10.50;;;3.90;;
66741;SDS011;53654;54.152;19.432;2023-09-30T05:53:22;7.30;;;3.30;;
66741;SDS011;53654;54.152;19.432;2023-09-30T05:55:50;9.10;;;3.70;;
66741;SDS011;53654;54.152;19.432;2023-09-30T05:58:18;7.50;;;3.20;;
66741;SDS011;53654;54.152;19.432;2023-09-30T06:00:47;9.10;;;3.80;;
66741;SDS011;53654;54.152;19.432;2023-09-30T06:03:15;8.40;;;3.70;;
66741;SDS011;53654;54.152;19.432;2023-09-30T06:05:43;8.00;;;3.80;;
66741;SDS011;53654;54.152;19.432;2023-09-30T06:08:11;8.70;;;3.50;;
66741;SDS011;53654;54.152;19.432;2023-09-30T06:10:43;8.50;;;3.70;;
66741;SDS011;53654;54.152;19.432;2023-09-30T06:13:11;8.30;;;3.90;;
66741;SDS011;53654;54.152;19.432;2023-09-30T06:15:41;7.10;;;3.50;;
66741;SDS011;53654;54.152;19.432;2023-09-30T06:18:10;9.30;;;3.90;;
66741;SDS011;53654;54.152;19.432;2023-09-30T06:20:41;9.90;;;4.40;;
66741;SDS011;53654;54.152;19.432;2023-09-30T06:23:10;11.20;;;6.80;;
66741;SDS011;53654;54.152;19.432;2023-09-30T06:25:38;10.50;;;4.30;;
66741;SDS011;53654;54.152;19.432;2023-09-30T06:28:08;9.30;;;4.40;;
66741;SDS011;53654;54.152;19.432;2023-09-30T06:30:36;10.00;;;4.20;;
66741;SDS011;53654;54.152;19.432;2023-09-30T06:33:05;9.10;;;4.20;;
66741;SDS011;53654;54.152;19.432;2023-09-30T06:35:33;10.50;;;4.70;;
66741;SDS011;53654;54.152;19.432;2023-09-30T06:38:05;10.90;;;4.60;;
66741;SDS011;53654;54.152;19.432;2023-09-30T06:40:36;10.70;;;4.40;;
66741;SDS011;53654;54.152;19.432;2023-09-30T06:43:08;9.80;;;4.20;;
66741;SDS011;53654;54.152;19.432;2023-09-30T06:45:36;8.70;;;4.30;;
66741;SDS011;53654;54.152;19.432;2023-09-30T06:48:10;9.80;;;4.40;;
66741;SDS011;53654;54.152;19.432;2023-09-30T06:50:43;13.10;;;4.40;;
66741;SDS011;53654;54.152;19.432;2023-09-30T06:53:17;8.80;;;4.30;;
66741;SDS011;53654;54.152;19.432;2023-09-30T06:55:46;10.60;;;4.80;;
66741;SDS011;53654;54.152;19.432;2023-09-30T06:58:14;9.00;;;4.50;;
66741;SDS011;53654;54.152;19.432;2023-09-30T07:00:49;7.90;;;4.20;;
66741;SDS011;53654;54.152;19.432;2023-09-30T07:03:18;9.20;;;4.40;;
66741;SDS011;53654;54.152;19.432;2023-09-30T07:05:51;10.00;;;4.70;;
66741;SDS011;53654;54.152;19.432;2023-09-30T07:08:22;8.90;;;4.70;;
66741;SDS011;53654;54.152;19.432;2023-09-30T07:10:50;8.70;;;4.70;;
66741;SDS011;53654;54.152;19.432;2023-09-30T07:13:20;8.80;;;4.70;;
66741;SDS011;53654;54.152;19.432;2023-09-30T07:15:48;10.60;;;5.10;;
66741;SDS011;53654;54.152;19.432;2023-09-30T07:18:17;11.00;;;5.00;;
66741;SDS011;53654;54.152;19.432;2023-09-30T07:20:46;9.30;;;4.70;;
66741;SDS011;53654;54.152;19.432;2023-09-30T07:23:14;9.90;;;4.70;;
66741;SDS011;53654;54.152;19.432;2023-09-30T07:25:47;9.20;;;4.90;;
66741;SDS011;53654;54.152;19.432;2023-09-30T07:28:16;10.30;;;4.90;;
66741;SDS011;53654;54.152;19.432;2023-09-30T07:30:44;10.70;;;5.00;;
66741;SDS011;53654;54.152;19.432;2023-09-30T07:33:12;9.00;;;4.60;;
66741;SDS011;53654;54.152;19.432;2023-09-30T07:35:41;10.00;;;4.90;;
66741;SDS011;53654;54.152;19.432;2023-09-30T07:38:09;10.50;;;4.90;;
66741;SDS011;53654;54.152;19.432;2023-09-30T07:40:37;11.00;;;4.80;;
66741;SDS011;53654;54.152;19.432;2023-09-30T07:43:05;12.50;;;5.00;;
66741;SDS011;53654;54.152;19.432;2023-09-30T07:45:33;9.70;;;4.50;;
66741;SDS011;53654;54.152;19.432;2023-09-30T07:48:02;7.70;;;4.20;;
66741;SDS011;53654;54.152;19.432;2023-09-30T07:50:32;9.50;;;4.60;;
66741;SDS011;53654;54.152;19.432;2023-09-30T07:53:02;10.10;;;4.60;;
66741;SDS011;53654;54.152;19.432;2023-09-30T07:55:30;9.20;;;4.60;;
66741;SDS011;53654;54.152;19.432;2023-09-30T07:57:58;9.80;;;4.80;;
66741;SDS011;53654;54.152;19.432;2023-09-30T08:00:28;9.90;;;4.60;;
66741;SDS011;53654;54.152;19.432;2023-09-30T08:02:57;10.20;;;4.60;;
66741;SDS011;53654;54.152;19.432;2023-09-30T08:05:29;9.30;;;4.30;;
66741;SDS011;53654;54.152;19.432;2023-09-30T08:07:57;10.00;;;4.80;;
66741;SDS011;53654;54.152;19.432;2023-09-30T08:10:25;9.70;;;4.90;;
66741;SDS011;53654;54.152;19.432;2023-09-30T08:12:53;10.00;;;4.80;;
66741;SDS011;53654;54.152;19.432;2023-09-30T08:15:24;10.50;;;4.90;;
66741;SDS011;53654;54.152;19.432;2023-09-30T08:17:53;11.00;;;5.00;;
66741;SDS011;53654;54.152;19.432;2023-09-30T08:20:21;9.40;;;4.80;;
66741;SDS011;53654;54.152;19.432;2023-09-30T08:22:50;10.70;;;4.40;;
66741;SDS011;53654;54.152;19.432;2023-09-30T08:25:18;9.40;;;4.40;;
66741;SDS011;53654;54.152;19.432;2023-09-30T08:27:46;8.60;;;4.70;;
66741;SDS011;53654;54.152;19.432;2023-09-30T08:30:17;8.70;;;4.50;;
66741;SDS011;53654;54.152;19.432;2023-09-30T08:32:46;9.40;;;4.50;;
66741;SDS011;53654;54.152;19.432;2023-09-30T08:35:14;9.20;;;4.80;;
66741;SDS011;53654;54.152;19.432;2023-09-30T08:37:43;9.30;;;4.70;;
66741;SDS011;53654;54.152;19.432;2023-09-30T08:40:11;10.40;;;4.60;;
66741;SDS011;53654;54.152;19.432;2023-09-30T08:42:40;9.00;;;4.40;;
66741;SDS011;53654;54.152;19.432;2023-09-30T08:45:10;9.80;;;4.60;;
66741;SDS011;53654;54.152;19.432;2023-09-30T08:47:40;9.20;;;4.90;;
66741;SDS011;53654;54.152;19.432;2023-09-30T08:50:08;11.10;;;4.80;;
66741;SDS011;53654;54.152;19.432;2023-09-30T08:52:38;10.80;;;4.50;;
66741;SDS011;53654;54.152;19.432;2023-09-30T08:55:08;11.80;;;4.70;;
66741;SDS011;53654;54.152;19.432;2023-09-30T08:57:38;11.50;;;4.60;;
66741;SDS011;53654;54.152;19.432;2023-09-30T09:00:09;9.50;;;4.10;;
66741;SDS011;53654;54.152;19.432;2023-09-30T09:02:41;9.20;;;4.30;;
66741;SDS011;53654;54.152;19.432;2023-09-30T09:05:10;9.10;;;4.10;;
66741;SDS011;53654;54.152;19.432;2023-09-30T09:07:39;11.70;;;4.30;;
66741;SDS011;53654;54.152;19.432;2023-09-30T09:10:09;8.00;;;4.40;;
66741;SDS011;53654;54.152;19.432;2023-09-30T09:12:38;10.30;;;4.10;;
66741;SDS011;53654;54.152;19.432;2023-09-30T09:15:07;9.20;;;4.40;;
66741;SDS011;53654;54.152;19.432;2023-09-30T09:17:47;8.50;;;3.90;;
66741;SDS011;53654;54.152;19.432;2023-09-30T09:20:18;8.20;;;4.00;;
66741;SDS011;53654;54.152;19.432;2023-09-30T09:22:51;11.00;;;4.00;;
66741;SDS011;53654;54.152;19.432;2023-09-30T09:25:22;10.40;;;4.20;;
66741;SDS011;53654;54.152;19.432;2023-09-30T09:27:51;9.80;;;4.20;;
66741;SDS011;53654;54.152;19.432;2023-09-30T09:30:23;7.70;;;4.00;;
66741;SDS011;53654;54.152;19.432;2023-09-30T09:33:02;8.50;;;3.80;;
66741;SDS011;53654;54.152;19.432;2023-09-30T09:35:35;8.90;;;3.80;;
66741;SDS011;53654;54.152;19.432;2023-09-30T09:38:07;9.00;;;3.80;;
66741;SDS011;53654;54.152;19.432;2023-09-30T09:40:36;7.20;;;3.60;;
66741;SDS011;53654;54.152;19.432;2023-09-30T09:43:08;8.40;;;3.90;;
66741;SDS011;53654;54.152;19.432;2023-09-30T09:45:37;8.60;;;3.90;;
66741;SDS011;53654;54.152;19.432;2023-09-30T09:48:06;8.90;;;4.00;;
66741;SDS011;53654;54.152;19.432;2023-09-30T09:50:35;8.30;;;4.00;;
66741;SDS011;53654;54.152;19.432;2023-09-30T09:53:04;9.00;;;4.30;;
66741;SDS011;53654;54.152;19.432;2023-09-30T09:55:32;8.90;;;4.40;;
66741;SDS011;53654;54.152;19.432;2023-09-30T09:58:01;8.60;;;4.10;;
66741;SDS011;53654;54.152;19.432;2023-09-30T10:00:30;9.00;;;3.90;;
66741;SDS011;53654;54.152;19.432;2023-09-30T10:02:59;9.10;;;4.30;;
66741;SDS011;53654;54.152;19.432;2023-09-30T10:05:29;10.10;;;4.80;;
66741;SDS011;53654;54.152;19.432;2023-09-30T10:08:01;10.70;;;4.30;;
66741;SDS011;53654;54.152;19.432;2023-09-30T10:10:36;9.50;;;4.50;;
66741;SDS011;53654;54.152;19.432;2023-09-30T10:13:05;10.00;;;4.30;;
66741;SDS011;53654;54.152;19.432;2023-09-30T10:15:34;9.30;;;4.00;;
66741;SDS011;53654;54.152;19.432;2023-09-30T10:20:33;7.40;;;3.50;;
66741;SDS011;53654;54.152;19.432;2023-09-30T10:25:46;6.90;;;3.30;;
66741;SDS011;53654;54.152;19.432;2023-09-30T10:31:22;9.30;;;5.50;;
66741;SDS011;53654;54.152;19.432;2023-09-30T10:36:29;7.50;;;3.90;;
66741;SDS011;53654;54.152;19.432;2023-09-30T10:39:00;7.30;;;3.30;;
66741;SDS011;53654;54.152;19.432;2023-09-30T10:46:50;7.30;;;3.30;;
66741;SDS011;53654;54.152;19.432;2023-09-30T10:51:57;7.90;;;3.50;;
66741;SDS011;53654;54.152;19.432;2023-09-30T10:54:30;8.30;;;3.70;;
66741;SDS011;53654;54.152;19.432;2023-09-30T10:57:00;7.10;;;3.30;;
66741;SDS011;53654;54.152;19.432;2023-09-30T10:59:29;6.90;;;3.50;;
66741;SDS011;53654;54.152;19.432;2023-09-30T11:02:03;7.90;;;3.50;;
66741;SDS011;53654;54.152;19.432;2023-09-30T11:04:45;10.60;;;3.80;;
66741;SDS011;53654;54.152;19.432;2023-09-30T11:07:18;7.00;;;3.40;;
66741;SDS011;53654;54.152;19.432;2023-09-30T11:09:50;8.20;;;3.40;;
66741;SDS011;53654;54.152;19.432;2023-09-30T11:12:18;8.40;;;3.50;;
66741;SDS011;53654;54.152;19.432;2023-09-30T11:14:47;7.00;;;3.10;;
66741;SDS011;53654;54.152;19.432;2023-09-30T11:17:15;6.50;;;2.90;;
66741;SDS011;53654;54.152;19.432;2023-09-30T11:19:50;6.00;;;2.80;;
66741;SDS011;53654;54.152;19.432;2023-09-30T11:22:20;6.40;;;3.10;;
66741;SDS011;53654;54.152;19.432;2023-09-30T11:24:49;7.40;;;3.00;;
66741;SDS011;53654;54.152;19.432;2023-09-30T11:27:23;6.70;;;2.80;;
66741;SDS011;53654;54.152;19.432;2023-09-30T11:29:55;5.60;;;3.00;;
66741;SDS011;53654;54.152;19.432;2023-09-30T11:32:24;6.10;;;3.20;;
66741;SDS011;53654;54.152;19.432;2023-09-30T11:34:55;5.50;;;2.80;;
66741;SDS011;53654;54.152;19.432;2023-09-30T11:37:23;7.10;;;3.00;;
66741;SDS011;53654;54.152;19.432;2023-09-30T11:39:51;7.50;;;3.10;;
66741;SDS011;53654;54.152;19.432;2023-09-30T11:42:20;7.80;;;3.10;;
66741;SDS011;53654;54.152;19.432;2023-09-30T11:44:48;7.00;;;3.00;;
66741;SDS011;53654;54.152;19.432;2023-09-30T11:47:27;7.30;;;3.10;;
66741;SDS011;53654;54.152;19.432;2023-09-30T11:49:57;8.30;;;3.20;;
66741;SDS011;53654;54.152;19.432;2023-09-30T11:52:26;7.50;;;3.00;;
66741;SDS011;53654;54.152;19.432;2023-09-30T11:54:58;9.50;;;3.10;;
66741;SDS011;53654;54.152;19.432;2023-09-30T11:57:29;5.90;;;3.00;;
66741;SDS011;53654;54.152;19.432;2023-09-30T11:59:57;7.60;;;3.30;;
66741;SDS011;53654;54.152;19.432;2023-09-30T12:02:25;7.30;;;3.10;;
66741;SDS011;53654;54.152;19.432;2023-09-30T12:04:54;7.30;;;3.10;;
66741;SDS011;53654;54.152;19.432;2023-09-30T12:07:23;7.10;;;3.30;;
66741;SDS011;53654;54.152;19.432;2023-09-30T12:09:51;7.80;;;3.30;;
66741;SDS011;53654;54.152;19.432;2023-09-30T12:12:19;5.90;;;2.90;;
66741;SDS011;53654;54.152;19.432;2023-09-30T12:14:47;6.90;;;3.20;;
66741;SDS011;53654;54.152;19.432;2023-09-30T12:17:18;6.90;;;3.10;;
66741;SDS011;53654;54.152;19.432;2023-09-30T12:19:49;8.60;;;3.20;;
66741;SDS011;53654;54.152;19.432;2023-09-30T12:22:18;10.10;;;3.30;;
66741;SDS011;53654;54.152;19.432;2023-09-30T12:24:46;7.70;;;3.10;;
66741;SDS011;53654;54.152;19.432;2023-09-30T12:27:15;7.80;;;3.00;;
66741;SDS011;53654;54.152;19.432;2023-09-30T12:29:45;7.60;;;3.20;;
66741;SDS011;53654;54.152;19.432;2023-09-30T12:32:16;6.80;;;3.20;;
66741;SDS011;53654;54.152;19.432;2023-09-30T12:34:44;8.10;;;3.20;;
66741;SDS011;53654;54.152;19.432;2023-09-30T12:37:12;7.30;;;3.20;;
66741;SDS011;53654;54.152;19.432;2023-09-30T12:39:41;7.60;;;3.50;;
66741;SDS011;53654;54.152;19.432;2023-09-30T12:42:09;7.90;;;3.50;;
66741;SDS011;53654;54.152;19.432;2023-09-30T12:44:40;7.80;;;3.30;;
66741;SDS011;53654;54.152;19.432;2023-09-30T12:47:08;8.80;;;3.40;;
66741;SDS011;53654;54.152;19.432;2023-09-30T12:49:36;8.20;;;3.80;;
66741;SDS011;53654;54.152;19.432;2023-09-30T12:52:04;9.40;;;3.70;;
66741;SDS011;53654;54.152;19.432;2023-09-30T12:54:32;8.50;;;3.40;;
66741;SDS011;53654;54.152;19.432;2023-09-30T12:57:02;9.20;;;3.70;;
66741;SDS011;53654;54.152;19.432;2023-09-30T12:59:30;8.90;;;3.80;;
66741;SDS011;53654;54.152;19.432;2023-09-30T13:01:58;7.10;;;3.30;;
66741;SDS011;53654;54.152;19.432;2023-09-30T13:04:27;8.50;;;3.60;;
66741;SDS011;53654;54.152;19.432;2023-09-30T13:06:55;8.30;;;3.70;;
66741;SDS011;53654;54.152;19.432;2023-09-30T13:09:23;6.90;;;3.40;;
66741;SDS011;53654;54.152;19.432;2023-09-30T13:11:51;7.40;;;3.80;;
66741;SDS011;53654;54.152;19.432;2023-09-30T13:14:19;7.60;;;3.60;;
66741;SDS011;53654;54.152;19.432;2023-09-30T13:16:47;9.00;;;3.70;;
66741;SDS011;53654;54.152;19.432;2023-09-30T13:19:16;8.10;;;3.80;;
66741;SDS011;53654;54.152;19.432;2023-09-30T13:21:49;7.20;;;3.60;;
66741;SDS011;53654;54.152;19.432;2023-09-30T13:24:21;8.80;;;3.80;;
66741;SDS011;53654;54.152;19.432;2023-09-30T13:26:49;8.10;;;3.60;;
66741;SDS011;53654;54.152;19.432;2023-09-30T13:29:20;9.90;;;4.10;;
66741;SDS011;53654;54.152;19.432;2023-09-30T13:31:48;9.00;;;3.80;;
66741;SDS011;53654;54.152;19.432;2023-09-30T13:34:16;6.80;;;3.80;;
66741;SDS011;53654;54.152;19.432;2023-09-30T13:36:44;8.20;;;3.50;;
66741;SDS011;53654;54.152;19.432;2023-09-30T13:39:13;9.50;;;3.70;;
66741;SDS011;53654;54.152;19.432;2023-09-30T13:41:41;9.60;;;3.90;;
66741;SDS011;53654;54.152;19.432;2023-09-30T13:44:09;8.70;;;3.80;;
66741;SDS011;53654;54.152;19.432;2023-09-30T13:46:39;8.50;;;3.60;;
66741;SDS011;53654;54.152;19.432;2023-09-30T13:49:08;8.40;;;3.40;;
66741;SDS011;53654;54.152;19.432;2023-09-30T13:51:36;9.10;;;3.80;;
66741;SDS011;53654;54.152;19.432;2023-09-30T13:54:07;8.50;;;3.70;;
66741;SDS011;53654;54.152;19.432;2023-09-30T13:56:35;8.50;;;3.40;;
66741;SDS011;53654;54.152;19.432;2023-09-30T13:59:03;6.90;;;3.80;;
66741;SDS011;53654;54.152;19.432;2023-09-30T14:01:32;8.00;;;3.80;;
66741;SDS011;53654;54.152;19.432;2023-09-30T14:04:00;8.80;;;3.50;;
66741;SDS011;53654;54.152;19.432;2023-09-30T14:06:28;6.30;;;3.40;;
66741;SDS011;53654;54.152;19.432;2023-09-30T14:08:57;7.00;;;3.40;;
66741;SDS011;53654;54.152;19.432;2023-09-30T14:11:26;6.90;;;3.50;;
66741;SDS011;53654;54.152;19.432;2023-09-30T14:13:55;7.50;;;3.60;;
66741;SDS011;53654;54.152;19.432;2023-09-30T14:16:24;8.50;;;3.70;;
66741;SDS011;53654;54.152;19.432;2023-09-30T14:18:52;8.40;;;3.80;;
66741;SDS011;53654;54.152;19.432;2023-09-30T14:21:21;7.10;;;3.50;;
66741;SDS011;53654;54.152;19.432;2023-09-30T14:23:49;6.30;;;3.40;;
66741;SDS011;53654;54.152;19.432;2023-09-30T14:26:17;7.90;;;3.40;;
66741;SDS011;53654;54.152;19.432;2023-09-30T14:28:45;9.40;;;4.10;;
66741;SDS011;53654;54.152;19.432;2023-09-30T14:31:14;8.70;;;3.60;;
66741;SDS011;53654;54.152;19.432;2023-09-30T14:33:42;8.60;;;3.50;;
66741;SDS011;53654;54.152;19.432;2023-09-30T14:36:10;8.10;;;3.60;;
66741;SDS011;53654;54.152;19.432;2023-09-30T14:38:38;8.80;;;3.70;;
66741;SDS011;53654;54.152;19.432;2023-09-30T14:41:07;8.50;;;3.80;;
66741;SDS011;53654;54.152;19.432;2023-09-30T14:43:39;9.20;;;3.80;;
66741;SDS011;53654;54.152;19.432;2023-09-30T14:46:08;8.80;;;3.90;;
66741;SDS011;53654;54.152;19.432;2023-09-30T14:48:36;9.00;;;3.60;;
66741;SDS011;53654;54.152;19.432;2023-09-30T14:51:04;8.00;;;4.00;;
66741;SDS011;53654;54.152;19.432;2023-09-30T14:53:33;7.80;;;3.70;;